Time;durP1;ratioP1;P1;durP2;ratioP2;P2;SDS_P1;SDS_P2;PMS_P1;PMS_P2;Temp;Humidity;BMP_temperature;BMP_pressure;BME280_temperature;BME280_humidity;BME280_pressure;Samples;Min_cycle;Max_cycle;Signal;HPM_P1;HPM_P2
2021/12/19 00:02:15;;;;;;;14.25;7.60;;;;;;;9.61;67.61;103768.84;5133001;28;20429;-44
2021/12/19 00:08:28;;;;;;;14.45;7.78;;;;;;;9.58;67.73;103766.34;5131557;28;20473;-43
2021/12/19 00:10:39;;;;;;;13.75;8.10;;;;;;;9.61;67.70;103764.41;5134732;28;20450;-43
2021/12/19 00:13:13;;;;;;;15.60;8.23;;;;;;;9.65;67.63;103759.84;5144549;28;20478;-43
2021/12/19 00:15:45;;;;;;;12.27;7.28;;;;;;;9.67;67.58;103761.50;5174044;28;20818;-43
2021/12/19 00:18:17;;;;;;;11.50;6.57;;;;;;;9.69;67.65;103756.13;5173067;28;20440;-42
2021/12/19 00:20:50;;;;;;;9.60;6.10;;;;;;;9.70;67.65;103758.72;5179511;28;20426;-42
2021/12/19 00:23:23;;;;;;;8.93;5.60;;;;;;;9.68;67.65;103760.56;5165086;28;20423;-42
2021/12/19 00:25:57;;;;;;;10.18;5.93;;;;;;;9.68;67.74;103747.38;5186585;28;20484;-43
2021/12/19 00:28:29;;;;;;;10.38;5.40;;;;;;;9.68;67.76;103750.00;5175630;28;20784;-45
2021/12/19 00:31:02;;;;;;;7.97;5.22;;;;;;;9.68;67.78;103742.09;5183374;28;20496;-44
2021/12/19 00:33:34;;;;;;;10.45;5.70;;;;;;;9.68;67.71;103734.16;5186229;28;20774;-44
2021/12/19 00:36:08;;;;;;;9.90;5.82;;;;;;;9.70;67.75;103740.25;5172604;28;20419;-44
2021/12/19 00:38:41;;;;;;;10.05;6.30;;;;;;;9.63;67.88;103723.00;5180651;28;20411;-44
2021/12/19 00:41:15;;;;;;;10.40;5.57;;;;;;;9.58;67.84;103725.00;5164983;28;20519;-49
2021/12/19 00:43:54;;;;;;;11.63;6.47;;;;;;;9.56;67.96;103718.91;5153396;28;20427;-43
2021/12/19 00:46:27;;;;;;;10.23;6.15;;;;;;;9.64;67.87;103732.63;5169201;28;20498;-45
2021/12/19 00:48:59;;;;;;;10.38;5.68;;;;;;;9.68;67.88;103728.03;5161782;28;20427;-51
2021/12/19 00:51:32;;;;;;;11.27;6.20;;;;;;;9.70;67.89;103720.91;5163226;28;20407;-44
2021/12/19 00:54:09;;;;;;;15.50;7.50;;;;;;;9.73;67.99;103722.56;5164115;28;20439;-44
2021/12/19 00:56:46;;;;;;;13.32;7.28;;;;;;;9.65;67.82;103707.94;5162918;28;20417;-43
2021/12/19 00:59:18;;;;;;;11.82;7.30;;;;;;;9.73;67.87;103720.78;5147354;28;20395;-43
2021/12/19 01:01:51;;;;;;;14.27;7.93;;;;;;;9.77;67.88;103718.84;5166208;28;20745;-43
2021/12/19 01:04:25;;;;;;;15.07;8.25;;;;;;;9.80;67.74;103719.53;5167178;28;20437;-43
2021/12/19 01:07:00;;;;;;;16.33;9.23;;;;;;;9.83;67.64;103719.38;5152109;28;20814;-43
2021/12/19 01:09:33;;;;;;;12.57;7.80;;;;;;;9.84;67.78;103712.31;5162237;28;20440;-42
2021/12/19 01:12:10;;;;;;;12.57;7.65;;;;;;;9.83;67.91;103707.97;5169594;28;20415;-42
2021/12/19 01:14:42;;;;;;;13.60;7.70;;;;;;;9.67;67.79;103679.69;5166818;28;20413;-43
2021/12/19 01:17:14;;;;;;;13.50;7.93;;;;;;;9.83;67.80;103706.19;5177783;28;20507;-49
2021/12/19 01:19:47;;;;;;;13.63;7.53;;;;;;;9.83;67.91;103703.56;5158180;28;20415;-46
2021/12/19 01:22:19;;;;;;;15.97;7.93;;;;;;;9.84;68.01;103699.13;5165444;28;20422;-42
2021/12/19 01:25:12;;;;;;;15.10;8.30;;;;;;;9.87;67.86;103698.97;5151977;28;20961;-47
2021/12/19 01:27:47;;;;;;;14.10;7.85;;;;;;;9.89;67.81;103694.47;5162824;28;20404;-44
2021/12/19 01:30:20;;;;;;;17.08;8.30;;;;;;;9.91;67.90;103697.91;5155785;28;20426;-44
2021/12/19 01:32:53;;;;;;;10.85;6.65;;;;;;;9.86;67.98;103697.28;5142707;28;20442;-45
2021/12/19 01:35:25;;;;;;;11.55;6.80;;;;;;;9.83;68.09;103697.41;5156151;28;20764;-44
2021/12/19 01:37:58;;;;;;;12.68;6.53;;;;;;;9.82;68.20;103693.09;5155335;28;20437;-44
2021/12/19 01:40:31;;;;;;;14.00;6.90;;;;;;;9.84;68.14;103699.13;5158665;28;20419;-44
2021/12/19 01:43:05;;;;;;;16.17;7.35;;;;;;;9.84;68.20;103696.47;5148283;28;20390;-45
2021/12/19 01:45:41;;;;;;;15.07;7.18;;;;;;;9.85;68.21;103692.94;5154407;28;20785;-44
2021/12/19 01:48:14;;;;;;;14.27;7.47;;;;;;;9.85;67.96;103688.50;5148514;28;20436;-48
2021/12/19 01:50:47;;;;;;;16.00;7.72;;;;;;;9.84;67.94;103675.38;5149519;28;20432;-44
2021/12/19 01:53:20;;;;;;;14.73;7.22;;;;;;;9.93;68.05;103696.88;5160723;28;20478;-46
2021/12/19 01:55:54;;;;;;;11.90;6.68;;;;;;;9.95;67.96;103693.34;5152271;28;20422;-43
2021/12/19 01:58:28;;;;;;;15.35;7.28;;;;;;;9.93;67.95;103683.69;5148626;28;20717;-43
2021/12/19 02:01:01;;;;;;;12.73;7.10;;;;;;;9.95;68.12;103691.53;5157888;28;21875;-44
2021/12/19 02:03:35;;;;;;;16.92;7.90;;;;;;;9.96;68.11;103682.69;5158486;28;20487;-44
2021/12/19 02:06:08;;;;;;;19.02;9.13;;;;;;;9.90;68.05;103661.88;5157145;28;20527;-43
2021/12/19 02:08:41;;;;;;;18.13;9.13;;;;;;;9.93;68.04;103664.34;5151258;28;20413;-43
2021/12/19 02:11:14;;;;;;;18.83;8.80;;;;;;;10.03;68.12;103672.66;5152903;28;20838;-46
2021/12/19 02:13:48;;;;;;;20.88;9.75;;;;;;;10.06;67.96;103681.28;5154277;28;20888;-43
2021/12/19 02:16:21;;;;;;;24.13;11.40;;;;;;;10.06;67.94;103678.63;5161927;28;20432;-45
2021/12/19 02:18:53;;;;;;;21.52;10.63;;;;;;;10.06;68.03;103670.72;5151040;28;20431;-43
2021/12/19 02:21:27;;;;;;;20.23;9.88;;;;;;;10.03;68.01;103668.22;5157861;28;20501;-43
2021/12/19 02:24:03;;;;;;;19.10;9.50;;;;;;;10.02;68.11;103663.03;5139417;28;20914;-45
2021/12/19 02:26:35;;;;;;;15.77;8.80;;;;;;;10.02;68.13;103663.03;5147981;28;20410;-44
2021/12/19 02:29:08;;;;;;;19.67;9.25;;;;;;;10.00;68.16;103649.91;5149217;28;20416;-45
2021/12/19 02:31:41;;;;;;;20.70;10.32;;;;;;;10.04;68.03;103634.78;5161634;28;20694;-43
2021/12/19 02:34:17;;;;;;;17.98;8.90;;;;;;;10.01;68.17;103632.31;5142684;28;20422;-45
2021/12/19 02:36:58;;;;;;;15.55;8.07;;;;;;;10.01;68.27;103630.50;5159184;28;20432;-43
2021/12/19 02:39:49;;;;;;;18.42;9.43;;;;;;;10.03;68.22;103630.41;5153322;28;20412;-47
2021/12/19 02:48:11;;;;;;;20.20;9.23;;;;;;;10.08;68.20;103626.63;5151670;28;20495;-43
2021/12/19 02:50:50;;;;;;;18.13;9.32;;;;;;;10.06;68.15;103617.91;5151688;28;20414;-48
2021/12/19 02:53:32;;;;;;;14.88;8.18;;;;;;;10.11;68.16;103623.81;5154216;28;20452;-44
2021/12/19 02:56:08;;;;;;;19.35;9.88;;;;;;;9.85;68.12;103571.50;5148470;28;20420;-43
2021/12/19 02:58:44;;;;;;;19.10;8.98;;;;;;;10.14;68.14;103622.81;5154210;28;20422;-44
2021/12/19 03:01:21;;;;;;;19.25;9.43;;;;;;;10.13;68.12;103619.31;5137991;28;20440;-44
2021/12/19 03:03:54;;;;;;;18.98;10.25;;;;;;;10.10;68.32;103611.56;5152650;28;20423;-43
2021/12/19 03:06:26;;;;;;;18.40;9.43;;;;;;;10.08;68.34;103610.78;5151223;28;20419;-43
2021/12/19 03:09:05;;;;;;;13.45;7.38;;;;;;;10.06;68.42;103615.25;5149492;28;20515;-45
2021/12/19 03:20:20;;;;;;;10.48;5.20;;;;;;;9.91;68.57;103600.25;5143725;28;20507;-45
2021/12/19 03:22:52;;;;;;;10.90;4.78;;;;;;;9.89;68.58;103597.66;5152205;28;20418;-44
2021/12/19 03:25:27;;;;;;;7.75;4.40;;;;;;;9.90;68.63;103606.44;5154265;28;20492;-46
2021/12/19 03:28:02;;;;;;;9.27;5.18;;;;;;;9.91;68.48;103598.44;5151752;28;20440;-44
2021/12/19 03:30:35;;;;;;;15.37;6.03;;;;;;;9.93;68.59;103593.06;5147832;28;20483;-44
2021/12/19 03:33:09;;;;;;;8.82;4.78;;;;;;;9.92;68.50;103588.72;5151719;28;20416;-47
2021/12/19 03:35:42;;;;;;;11.38;5.00;;;;;;;9.86;68.53;103575.84;5149058;28;20463;-43
2021/12/19 03:38:16;;;;;;;6.80;3.97;;;;;;;9.88;68.52;103571.34;5154920;28;20407;-44
2021/12/19 03:41:05;;;;;;;7.65;4.03;;;;;;;9.84;68.66;103565.34;5161226;28;20422;-44
2021/12/19 03:43:38;;;;;;;8.13;4.68;;;;;;;9.79;68.56;103572.66;5146973;28;20619;-43
2021/12/19 03:46:10;;;;;;;6.00;4.13;;;;;;;9.82;68.51;103566.38;5160051;28;20420;-44
2021/12/19 03:48:43;;;;;;;8.32;4.47;;;;;;;9.82;68.74;103574.31;5153404;28;20415;-46
2021/12/19 03:51:15;;;;;;;10.32;4.90;;;;;;;9.81;68.66;103568.16;5152547;28;20509;-44
2021/12/19 03:53:47;;;;;;;9.27;5.40;;;;;;;9.84;68.68;103569.78;5151765;28;20454;-44
2021/12/19 03:56:21;;;;;;;12.38;5.65;;;;;;;9.83;68.55;103557.53;5153416;28;20511;-43
2021/12/19 03:58:54;;;;;;;11.07;5.35;;;;;;;9.82;68.65;103558.47;5149410;28;20416;-43
2021/12/19 04:01:26;;;;;;;9.95;4.75;;;;;;;9.81;68.59;103560.22;5147459;28;20907;-46
2021/12/19 04:04:00;;;;;;;11.25;5.18;;;;;;;9.78;68.73;103548.97;5159637;28;20846;-45
2021/12/19 04:06:32;;;;;;;8.50;4.88;;;;;;;9.70;68.69;103537.03;5154903;28;20447;-44
2021/12/19 04:09:04;;;;;;;7.20;4.68;;;;;;;9.76;68.65;103529.75;5151700;28;20439;-43
2021/12/19 04:11:38;;;;;;;7.93;4.70;;;;;;;9.76;68.75;103530.59;5149461;28;20502;-46
2021/12/19 04:14:10;;;;;;;9.05;4.35;;;;;;;9.70;68.66;103515.94;5152818;28;20428;-44
2021/12/19 04:16:43;;;;;;;11.18;5.15;;;;;;;9.77;68.58;103527.00;5160418;28;20423;-43
2021/12/19 04:19:15;;;;;;;8.82;5.50;;;;;;;9.77;68.78;103526.16;5157921;28;20835;-43
2021/12/19 04:21:48;;;;;;;11.50;6.80;;;;;;;9.81;68.61;103512.72;5147776;28;20422;-43
2021/12/19 04:24:20;;;;;;;18.25;7.30;;;;;;;8.73;68.71;103347.69;5155359;28;20907;-43
2021/12/19 04:26:54;;;;;;;19.42;8.00;;;;;;;9.82;68.63;103516.25;5149337;28;20436;-43
2021/12/19 04:29:27;;;;;;;16.02;7.00;;;;;;;9.81;68.61;103512.72;5151798;28;20453;-46
2021/12/19 04:31:59;;;;;;;13.93;7.03;;;;;;;9.80;68.63;103513.66;5160214;28;20419;-43
2021/12/19 04:34:32;;;;;;;12.60;6.78;;;;;;;9.70;68.52;103499.25;5150226;28;20420;-44
2021/12/19 04:37:16;;;;;;;11.43;6.30;;;;;;;9.76;68.68;103513.91;5151583;28;21272;-44
2021/12/19 04:39:56;;;;;;;10.02;5.72;;;;;;;9.73;68.74;103512.28;5149026;28;20411;-44
2021/12/19 04:51:18;;;;;;;14.88;5.88;;;;;;;9.40;68.59;103467.34;5151955;28;20488;-45
2021/12/19 04:54:03;;;;;;;10.32;6.07;;;;;;;9.69;68.77;103524.78;5152392;28;20436;-44
2021/12/19 04:56:45;;;;;;;12.52;6.15;;;;;;;9.70;68.65;103521.19;5159543;28;20432;-44
2021/12/19 04:59:53;;;;;;;6.80;4.32;;;;;;;9.66;68.67;103524.94;5153488;28;20432;-45
2021/12/19 05:02:41;;;;;;;3.15;2.40;;;;;;;9.58;68.81;103527.09;5150556;28;20437;-44
2021/12/19 05:05:28;;;;;;;5.90;2.80;;;;;;;9.55;68.90;103524.63;5163571;28;20449;-40
2021/12/19 05:16:33;;;;;;;7.43;3.20;;;;;;;9.36;68.70;103471.09;5152551;28;20434;-43
2021/12/19 05:19:10;;;;;;;5.07;2.72;;;;;;;9.24;68.64;103449.66;5156668;28;20503;-44
2021/12/19 05:21:42;;;;;;;7.55;3.38;;;;;;;9.56;68.66;103505.22;5147221;28;20427;-44
2021/12/19 05:24:22;;;;;;;6.60;2.70;;;;;;;9.56;68.70;103502.56;5152352;28;20514;-45
2021/12/19 05:27:28;;;;;;;6.93;3.22;;;;;;;9.55;68.66;103500.88;5161568;28;20425;-45
2021/12/19 05:30:00;;;;;;;5.22;2.92;;;;;;;9.55;68.63;103500.88;5154488;28;20443;-43
2021/12/19 05:32:34;;;;;;;7.80;3.47;;;;;;;9.51;68.72;103507.25;5153739;28;20432;-43
2021/12/19 05:35:09;;;;;;;5.38;3.05;;;;;;;9.49;68.76;103506.47;5154559;28;20539;-43
2021/12/19 05:46:11;;;;;;;8.32;3.08;;;;;;;9.41;68.81;103503.34;5145892;28;20403;-43
2021/12/19 05:48:44;;;;;;;6.33;2.80;;;;;;;9.41;68.72;103503.34;5142084;28;20422;-43
2021/12/19 05:51:17;;;;;;;7.03;3.03;;;;;;;9.38;68.66;103495.59;5150718;28;20942;-42
2021/12/19 05:53:49;;;;;;;6.00;3.33;;;;;;;9.41;68.70;103496.31;5152383;28;20427;-44
2021/12/19 05:56:21;;;;;;;9.45;3.08;;;;;;;9.47;68.65;103503.03;5150719;28;20957;-43
2021/12/19 05:58:55;;;;;;;4.10;3.23;;;;;;;9.52;68.47;103498.38;5151385;28;20442;-44
2021/12/19 06:01:27;;;;;;;7.17;3.33;;;;;;;9.51;68.54;103493.19;5152170;28;20468;-45
2021/12/19 06:04:01;;;;;;;5.03;3.20;;;;;;;9.51;68.56;103494.06;5163121;28;20879;-44
2021/12/19 06:06:33;;;;;;;6.93;3.47;;;;;;;9.46;68.76;103477.59;5160414;28;21903;-44
2021/12/19 06:09:06;;;;;;;10.02;3.70;;;;;;;9.56;68.44;103486.75;5150412;28;20527;-44
2021/12/19 06:11:38;;;;;;;7.75;3.25;;;;;;;9.58;68.44;103484.88;5159918;28;20413;-43
2021/12/19 06:14:10;;;;;;;11.38;3.70;;;;;;;9.59;68.57;103486.59;5155065;28;20421;-44
2021/12/19 06:16:43;;;;;;;7.72;3.88;;;;;;;9.59;68.40;103480.47;5148539;28;20410;-42
2021/12/19 06:19:16;;;;;;;5.88;3.13;;;;;;;9.57;68.47;103487.59;5152323;28;20734;-43
2021/12/19 06:21:49;;;;;;;7.43;3.60;;;;;;;9.57;68.53;103482.31;5145131;28;20970;-43
2021/12/19 06:24:21;;;;;;;8.57;4.07;;;;;;;9.57;68.48;103480.56;5155128;28;20880;-42
2021/12/19 06:26:53;;;;;;;9.10;3.97;;;;;;;9.57;68.55;103484.94;5145461;28;21369;-43
2021/12/19 06:29:26;;;;;;;6.93;3.80;;;;;;;9.56;68.51;103478.81;5150703;28;20513;-44
2021/12/19 06:31:59;;;;;;;6.13;3.20;;;;;;;9.57;68.45;103472.63;5160819;28;20493;-44
2021/12/19 06:34:33;;;;;;;8.68;3.97;;;;;;;9.58;68.35;103471.69;5155226;28;20425;-44
2021/12/19 06:37:09;;;;;;;6.95;3.75;;;;;;;9.58;68.46;103468.22;5150978;28;20443;-43
2021/12/19 06:39:41;;;;;;;7.83;3.77;;;;;;;9.59;68.55;103475.19;5155374;28;20479;-43
2021/12/19 06:42:14;;;;;;;5.72;2.70;;;;;;;9.59;68.42;103473.38;5151210;28;20425;-45
2021/12/19 06:44:46;;;;;;;5.65;3.00;;;;;;;9.57;68.43;103475.28;5144136;28;20414;-44
2021/12/19 06:47:18;;;;;;;5.38;3.35;;;;;;;9.53;68.48;103476.34;5162186;28;20782;-44
2021/12/19 06:49:52;;;;;;;7.28;5.35;;;;;;;9.52;68.48;103479.06;5152955;28;20434;-44
2021/12/19 06:52:24;;;;;;;9.00;5.70;;;;;;;9.52;68.57;103479.06;5159806;28;20840;-43
2021/12/19 06:54:57;;;;;;;11.30;6.60;;;;;;;9.52;68.44;103469.38;5151618;28;20405;-43
2021/12/19 06:57:29;;;;;;;12.85;7.53;;;;;;;9.50;68.48;103465.94;5148072;28;20516;-43
2021/12/19 07:00:01;;;;;;;10.93;6.70;;;;;;;9.48;68.70;103473.09;5146618;28;20423;-51
2021/12/19 07:02:34;;;;;;;11.00;6.00;;;;;;;9.50;68.57;103475.66;5155059;28;20747;-47
2021/12/19 07:05:09;;;;;;;8.30;4.95;;;;;;;9.50;68.49;103465.94;5153873;28;20812;-43
2021/12/19 07:07:42;;;;;;;9.52;5.35;;;;;;;9.51;68.64;103459.75;5153806;28;20405;-43
2021/12/19 07:10:14;;;;;;;11.70;5.07;;;;;;;9.56;68.47;103460.34;5150341;28;20774;-46
2021/12/19 07:12:46;;;;;;;11.68;5.22;;;;;;;9.53;68.50;103463.16;5154160;28;20420;-44
2021/12/19 07:15:19;;;;;;;10.50;5.90;;;;;;;9.52;68.43;103448.25;5152450;28;20406;-43
2021/12/19 07:17:51;;;;;;;14.23;7.60;;;;;;;9.53;68.51;103459.66;5137638;28;20434;-44
2021/12/19 07:20:25;;;;;;;12.82;6.60;;;;;;;9.51;68.60;103441.28;5157361;28;20468;-43
2021/12/19 07:22:58;;;;;;;11.75;6.75;;;;;;;9.50;68.58;103438.72;5155724;28;20421;-44
2021/12/19 07:25:30;;;;;;;13.77;7.20;;;;;;;9.49;68.58;103448.41;5157730;28;20433;-44
2021/12/19 07:28:03;;;;;;;18.88;7.88;;;;;;;9.54;68.51;103451.69;5156324;28;20422;-44
2021/12/19 07:30:36;;;;;;;15.38;9.02;;;;;;;9.57;68.47;103451.53;5146077;28;21020;-44
2021/12/19 07:33:10;;;;;;;16.90;8.23;;;;;;;9.61;68.50;103453.06;5145633;28;20470;-44
2021/12/19 07:35:47;;;;;;;14.07;7.80;;;;;;;9.61;68.53;103453.06;5151015;28;20426;-43
2021/12/19 07:38:26;;;;;;;10.68;6.40;;;;;;;9.63;68.48;103451.22;5151396;28;20418;-43
2021/12/19 07:40:59;;;;;;;12.93;6.25;;;;;;;9.65;68.42;103448.47;5166371;28;20419;-43
2021/12/19 07:43:31;;;;;;;10.55;5.55;;;;;;;9.61;68.48;103447.78;5150427;28;20442;-43
2021/12/19 07:46:04;;;;;;;12.13;5.03;;;;;;;9.59;68.45;103449.66;5143649;28;23304;-43
2021/12/19 07:48:36;;;;;;;7.40;4.30;;;;;;;9.48;68.58;103436.19;5153728;28;20511;-43
2021/12/19 07:51:10;;;;;;;8.57;4.22;;;;;;;9.58;68.46;103445.31;5159963;28;20428;-43
2021/12/19 07:53:42;;;;;;;6.22;4.10;;;;;;;9.58;68.52;103440.03;5154799;28;20444;-45
2021/12/19 07:56:15;;;;;;;6.90;4.30;;;;;;;9.55;68.59;103448.09;5166865;28;20780;-45
2021/12/19 07:58:47;;;;;;;9.95;4.00;;;;;;;9.50;68.48;103439.56;5153511;28;20408;-45
2021/12/19 08:01:19;;;;;;;8.57;4.32;;;;;;;9.49;68.68;103443.16;5150342;28;20422;-44
2021/12/19 08:03:52;;;;;;;7.22;4.28;;;;;;;9.51;68.52;103430.75;5146095;28;20430;-45
2021/12/19 08:06:25;;;;;;;9.07;4.97;;;;;;;9.53;68.44;103430.66;5154463;28;20431;-44
2021/12/19 08:09:07;;;;;;;7.63;4.40;;;;;;;9.54;68.51;103448.16;5156735;28;20881;-44
2021/12/19 08:11:43;;;;;;;9.30;5.15;;;;;;;9.54;68.50;103424.44;5158951;28;20409;-46
2021/12/19 08:14:17;;;;;;;7.25;4.20;;;;;;;9.55;68.47;103427.00;5161496;28;20418;-45
2021/12/19 08:16:49;;;;;;;7.25;4.07;;;;;;;9.53;68.63;103422.72;5152072;28;20786;-43
2021/12/19 08:19:21;;;;;;;8.57;4.32;;;;;;;9.54;68.61;103425.31;5156840;28;20439;-44
2021/12/19 08:21:55;;;;;;;9.60;5.15;;;;;;;9.58;68.42;103420.72;5153615;28;20499;-42
2021/12/19 08:24:27;;;;;;;12.50;5.80;;;;;;;9.63;68.53;103430.09;5150276;28;20422;-43
2021/12/19 08:26:59;;;;;;;8.77;4.38;;;;;;;9.66;68.25;103416.75;5162331;28;20423;-46
2021/12/19 08:29:32;;;;;;;9.27;5.15;;;;;;;9.72;68.26;103425.25;5153169;28;20510;-45
2021/12/19 08:32:07;;;;;;;8.90;4.40;;;;;;;9.74;68.25;103415.47;5156313;28;20430;-44
2021/12/19 08:34:40;;;;;;;9.90;4.88;;;;;;;9.75;68.37;103409.25;5154643;28;20484;-44
2021/12/19 08:37:15;;;;;;;7.05;4.10;;;;;;;9.77;68.30;103410.03;5150441;28;20469;-44
2021/12/19 08:39:51;;;;;;;9.85;4.40;;;;;;;9.80;68.22;103407.25;5151019;28;20498;-44
2021/12/19 08:42:24;;;;;;;5.70;4.30;;;;;;;9.78;68.18;103401.19;5156888;28;20417;-44
2021/12/19 08:44:56;;;;;;;8.45;4.13;;;;;;;9.87;68.23;103416.53;5156431;28;20442;-44
2021/12/19 08:47:28;;;;;;;9.68;5.10;;;;;;;9.87;68.14;103416.53;5148296;28;20449;-43
2021/12/19 08:50:01;;;;;;;11.98;5.55;;;;;;;9.88;68.15;103410.34;5156430;28;20408;-43
2021/12/19 08:52:34;;;;;;;11.65;6.22;;;;;;;9.85;68.21;103405.22;5156782;28;20415;-43
2021/12/19 08:55:09;;;;;;;18.77;6.20;;;;;;;9.81;68.30;103407.16;5154138;28;20425;-43
2021/12/19 08:57:41;;;;;;;12.77;5.63;;;;;;;9.76;68.42;103396.00;5143240;28;20895;-43
2021/12/19 09:00:18;;;;;;;15.20;6.50;;;;;;;9.63;68.48;103379.97;5149755;28;20460;-44
2021/12/19 09:02:55;;;;;;;26.15;8.38;;;;;;;9.67;68.60;103394.69;5155046;28;20414;-49
2021/12/19 09:05:30;;;;;;;18.40;7.68;;;;;;;9.66;68.54;103395.63;5157358;28;20430;-44
2021/12/19 09:08:04;;;;;;;17.45;8.05;;;;;;;9.56;68.58;103381.22;5154802;28;20422;-43
2021/12/19 09:10:36;;;;;;;21.55;9.35;;;;;;;9.59;68.68;103386.31;5154614;28;20421;-44
2021/12/19 09:13:09;;;;;;;22.35;9.05;;;;;;;9.67;68.58;103402.63;5153555;28;20426;-43
2021/12/19 09:15:41;;;;;;;24.65;9.27;;;;;;;9.65;68.66;103409.75;5152329;28;20420;-42
2021/12/19 09:18:14;;;;;;;20.88;7.63;;;;;;;9.63;68.77;103408.13;5152533;28;20418;-44
2021/12/19 09:20:46;;;;;;;17.08;7.63;;;;;;;9.64;68.78;103407.19;5144435;28;20511;-44
2021/12/19 09:23:20;;;;;;;15.90;7.47;;;;;;;9.69;68.60;103405.16;5148808;28;20522;-44
2021/12/19 09:25:52;;;;;;;18.85;7.07;;;;;;;9.70;68.61;103405.09;5154936;28;20435;-44
2021/12/19 09:28:25;;;;;;;17.83;6.95;;;;;;;9.74;68.55;103405.78;5156347;28;20433;-46
2021/12/19 09:30:57;;;;;;;20.67;7.45;;;;;;;9.77;68.72;103410.91;5145070;28;20568;-45
2021/12/19 09:33:30;;;;;;;19.98;6.95;;;;;;;9.80;68.52;103412.53;5142641;28;20414;-45
2021/12/19 09:36:02;;;;;;;19.67;7.00;;;;;;;9.78;68.48;103411.75;5143241;28;20424;-45
2021/12/19 09:38:37;;;;;;;19.20;6.78;;;;;;;9.54;68.63;103372.53;5151083;28;20421;-45
2021/12/19 09:41:14;;;;;;;15.57;5.40;;;;;;;9.78;68.56;103402.03;5145298;28;20517;-45
2021/12/19 09:43:46;;;;;;;17.38;6.25;;;;;;;9.81;68.53;103404.50;5149579;28;20501;-43
2021/12/19 09:46:21;;;;;;;25.70;7.22;;;;;;;9.80;68.48;103399.31;5141867;28;20421;-45
2021/12/19 09:48:53;;;;;;;20.35;6.88;;;;;;;9.83;68.38;103392.09;5146581;28;20428;-43
2021/12/19 09:51:26;;;;;;;18.88;6.45;;;;;;;9.92;68.37;103403.94;5145774;28;20426;-45
2021/12/19 09:54:00;;;;;;;16.17;5.60;;;;;;;9.87;68.30;103380.41;5151506;28;20432;-46
2021/12/19 09:56:33;;;;;;;18.33;6.38;;;;;;;9.97;68.27;103393.97;5143826;28;20439;-44
2021/12/19 09:59:11;;;;;;;17.55;6.22;;;;;;;9.96;68.25;103392.28;5150264;28;21041;-44
2021/12/19 10:01:44;;;;;;;17.93;7.23;;;;;;;9.97;68.25;103391.34;5146184;28;20906;-45
2021/12/19 10:04:35;;;;;;;21.45;6.80;;;;;;;9.99;68.25;103389.47;5150423;28;20897;-45
2021/12/19 10:07:14;;;;;;;20.65;7.07;;;;;;;9.99;68.23;103384.19;5153372;28;20430;-44
2021/12/19 10:09:59;;;;;;;18.90;6.55;;;;;;;9.97;68.18;103380.78;5142854;28;20411;-48
2021/12/19 10:12:48;;;;;;;13.23;6.23;;;;;;;10.04;68.19;103397.16;5154609;28;20969;-43
2021/12/19 10:15:27;;;;;;;19.13;7.00;;;;;;;10.02;68.10;103389.31;5156331;28;20431;-43
2021/12/19 10:18:04;;;;;;;18.70;7.28;;;;;;;10.04;68.13;103387.44;5146957;28;20778;-45
2021/12/19 10:20:49;;;;;;;15.38;6.07;;;;;;;10.03;68.10;103396.28;5145781;28;20797;-44
2021/12/19 10:23:24;;;;;;;15.05;6.13;;;;;;;9.99;68.15;103372.78;5144555;28;20420;-44
2021/12/19 10:26:23;;;;;;;17.15;6.57;;;;;;;10.00;68.20;103375.31;5148488;28;20945;-44
2021/12/19 10:29:00;;;;;;;15.23;6.00;;;;;;;9.94;68.13;103370.41;5144896;28;20512;-44
2021/12/19 10:31:32;;;;;;;16.50;7.32;;;;;;;9.94;68.12;103375.69;5145113;28;20511;-44
2021/12/19 10:34:21;;;;;;;20.10;7.05;;;;;;;9.86;68.17;103356.75;5148272;28;20539;-44
2021/12/19 10:37:43;;;;;;;11.50;5.60;;;;;;;9.92;68.34;103382.84;5152038;28;20913;-45
2021/12/19 10:40:16;;;;;;;12.95;4.53;;;;;;;9.89;68.18;103383.00;5123303;28;20864;-51
2021/12/19 10:42:56;;;;;;;13.45;3.80;;;;;;;9.89;68.13;103381.19;5150546;28;20405;-45
2021/12/19 10:45:35;;;;;;;9.87;3.30;;;;;;;9.82;68.18;103371.06;5149789;28;20424;-45
2021/12/19 10:48:17;;;;;;;11.75;3.70;;;;;;;9.73;68.25;103361.00;5153531;28;20774;-43
2021/12/19 10:50:57;;;;;;;9.98;3.38;;;;;;;9.70;68.33;103362.88;5147997;28;20417;-44
2021/12/19 10:53:35;;;;;;;8.68;2.97;;;;;;;9.74;68.16;103367.97;5148229;28;20431;-44
2021/12/19 10:56:13;;;;;;;7.88;2.95;;;;;;;9.67;68.01;103360.41;5147014;28;20428;-47
2021/12/19 10:58:53;;;;;;;11.30;3.03;;;;;;;9.68;67.92;103346.25;5136243;28;20903;-46
2021/12/19 11:01:29;;;;;;;6.68;3.08;;;;;;;9.82;67.88;103358.72;5147940;28;20505;-44
2021/12/19 11:04:05;;;;;;;7.18;3.38;;;;;;;9.88;67.73;103363.66;5153644;28;20438;-43
2021/12/19 11:06:43;;;;;;;11.37;4.20;;;;;;;9.92;67.68;103346.72;5145465;28;20488;-44
2021/12/19 11:09:18;;;;;;;12.43;4.00;;;;;;;9.81;67.62;103333.25;5135906;28;20429;-49
2021/12/19 11:11:56;;;;;;;9.18;3.38;;;;;;;9.96;67.60;103336.84;5148726;28;20512;-43
2021/12/19 11:14:37;;;;;;;7.93;3.70;;;;;;;9.96;67.47;103331.56;5150248;28;20432;-43
2021/12/19 11:17:14;;;;;;;9.60;4.07;;;;;;;9.86;67.51;103314.53;5152616;28;20418;-46
2021/12/19 11:19:47;;;;;;;10.52;3.50;;;;;;;9.96;67.33;103328.91;5148073;28;20439;-46
2021/12/19 11:22:24;;;;;;;15.85;4.57;;;;;;;10.04;67.37;103323.22;5143899;28;20505;-44
2021/12/19 11:25:05;;;;;;;9.95;4.55;;;;;;;10.02;67.33;103319.81;5143374;28;20417;-45
2021/12/19 11:27:38;;;;;;;13.25;5.07;;;;;;;10.06;67.21;103321.34;5147746;28;20412;-45
2021/12/19 11:30:14;;;;;;;9.73;4.20;;;;;;;10.02;67.14;103304.81;5138999;28;20410;-46
2021/12/19 11:33:12;;;;;;;13.30;4.53;;;;;;;10.10;67.17;103317.59;5163653;28;20491;-47
2021/12/19 11:35:48;;;;;;;14.75;4.75;;;;;;;10.09;67.14;103308.81;5145858;28;20446;-44
2021/12/19 11:38:22;;;;;;;13.15;4.82;;;;;;;10.10;67.05;103310.53;5152364;28;20772;-44
2021/12/19 11:40:55;;;;;;;13.02;4.32;;;;;;;10.13;67.03;103313.00;5160723;28;20417;-44
2021/12/19 11:43:37;;;;;;;13.57;4.85;;;;;;;10.15;66.89;103311.09;5155543;28;20436;-43
2021/12/19 11:46:17;;;;;;;16.55;5.50;;;;;;;10.11;66.75;103292.91;5155313;28;20407;-44
2021/12/19 11:49:15;;;;;;;17.73;6.33;;;;;;;10.16;66.78;103290.84;5145805;28;20914;-43
2021/12/19 11:51:47;;;;;;;16.65;6.32;;;;;;;10.18;66.78;103290.75;5157516;28;20421;-44
2021/12/19 11:54:21;;;;;;;15.63;6.03;;;;;;;10.19;66.76;103287.16;5144507;28;20840;-44
2021/12/19 11:57:10;;;;;;;14.93;6.20;;;;;;;10.23;66.71;103286.91;5142544;28;20488;-43
2021/12/19 11:59:42;;;;;;;19.40;6.55;;;;;;;10.24;66.60;103271.91;5148652;28;20495;-46
2021/12/19 12:02:27;;;;;;;15.73;6.13;;;;;;;10.18;66.75;103274.91;5150899;28;20822;-48
2021/12/19 12:05:22;;;;;;;20.02;6.57;;;;;;;10.14;66.66;103277.72;5161148;28;20434;-45
2021/12/19 12:08:13;;;;;;;16.92;5.90;;;;;;;10.11;66.85;103269.97;5149784;28;20496;-44
2021/12/19 12:11:11;;;;;;;19.50;6.70;;;;;;;10.10;66.99;103267.44;5146649;28;20422;-44
2021/12/19 12:13:43;;;;;;;16.63;5.55;;;;;;;10.12;66.84;103254.97;5149851;28;20424;-44
2021/12/19 12:16:43;;;;;;;16.70;6.72;;;;;;;10.13;66.72;103254.91;5147486;28;20468;-48
2021/12/19 12:19:17;;;;;;;16.10;6.85;;;;;;;10.14;66.67;103256.59;5147531;28;20425;-44
2021/12/19 12:21:50;;;;;;;17.20;6.35;;;;;;;10.13;66.78;103249.63;5148467;28;20869;-44
2021/12/19 12:24:23;;;;;;;14.77;6.50;;;;;;;10.12;66.71;103250.53;5151133;28;20416;-44
2021/12/19 12:26:59;;;;;;;18.38;6.53;;;;;;;10.13;66.81;103254.06;5152220;28;20442;-48
2021/12/19 12:29:33;;;;;;;16.33;6.20;;;;;;;10.14;66.77;103246.03;5153326;28;20859;-44
2021/12/19 12:32:08;;;;;;;23.55;7.65;;;;;;;10.18;66.72;103243.22;5147782;28;20440;-44
2021/12/19 12:34:42;;;;;;;22.80;7.28;;;;;;;10.21;66.58;103245.69;5146328;28;20505;-44
2021/12/19 12:37:15;;;;;;;19.83;6.97;;;;;;;10.22;66.53;103239.47;5154784;28;20574;-43
2021/12/19 12:39:47;;;;;;;21.15;7.30;;;;;;;10.25;66.55;103232.22;5163318;28;20433;-44
2021/12/19 12:42:22;;;;;;;21.45;7.57;;;;;;;10.24;66.50;103225.22;5145440;28;20489;-45
2021/12/19 12:45:04;;;;;;;19.70;8.00;;;;;;;10.29;66.54;103230.28;5155872;28;20434;-43
2021/12/19 12:47:36;;;;;;;18.92;7.30;;;;;;;10.24;66.47;103227.03;5144998;28;20405;-44
2021/12/19 12:50:10;;;;;;;17.17;6.93;;;;;;;10.28;66.45;103218.00;5148536;28;20483;-44